Time;durP1;ratioP1;P1;durP2;ratioP2;P2;SDS_P1;SDS_P2;PMS_P1;PMS_P2;Temp;Humidity;BMP_temperature;BMP_pressure;BME280_temperature;BME280_humidity;BME280_pressure;Samples;Min_cycle;Max_cycle;Signal;HPM_P1;HPM_P2
2022/09/13 00:01:04;;;;;;;0.60;0.60;;;;;13.50;95690.00;;;;5115029;28;20186;-74
2022/09/13 00:03:34;;;;;;;0.70;0.70;;;;;13.40;95683.00;;;;5114877;28;20214;-74
2022/09/13 00:06:07;;;;;;;1.40;1.30;;;;;13.50;95679.00;;;;5114782;28;20214;-74
2022/09/13 00:08:34;;;;;;;0.83;0.83;;;;;13.30;95676.00;;;;5114881;28;20251;-74
2022/09/13 00:11:01;;;;;;;0.60;0.60;;;;;13.30;95685.00;;;;5114700;28;20232;-74
2022/09/13 00:13:28;;;;;;;0.47;0.47;;;;;13.20;95683.00;;;;5114762;28;20205;-74
2022/09/13 00:15:55;;;;;;;0.60;0.60;;;;;13.20;95685.00;;;;5114623;28;20217;-73
2022/09/13 00:18:22;;;;;;;0.90;0.90;;;;;13.20;95680.00;;;;5114752;28;20205;-74
2022/09/13 00:20:49;;;;;;;0.60;0.60;;;;;13.10;95679.00;;;;5114596;28;20228;-74
2022/09/13 00:23:16;;;;;;;0.70;0.70;;;;;13.00;95673.00;;;;5114660;28;20663;-74
2022/09/13 00:25:42;;;;;;;0.70;0.70;;;;;13.00;95683.00;;;;5114330;28;20499;-73
2022/09/13 00:28:09;;;;;;;0.73;0.73;;;;;13.00;95682.00;;;;5114525;28;20214;-70
2022/09/13 00:30:36;;;;;;;0.77;0.77;;;;;12.90;95680.00;;;;5114505;28;20206;-74
2022/09/13 00:33:03;;;;;;;0.97;0.97;;;;;12.90;95668.00;;;;5096306;28;20194;-73
2022/09/13 00:35:31;;;;;;;0.67;0.67;;;;;13.00;95668.00;;;;5114478;28;20224;-73
2022/09/13 00:37:59;;;;;;;0.70;0.70;;;;;13.10;95671.00;;;;5114551;28;20242;-70
2022/09/13 00:40:28;;;;;;;1.27;1.17;;;;;13.00;95664.00;;;;5114378;28;20206;-74
2022/09/13 00:42:55;;;;;;;1.23;1.10;;;;;13.00;95655.00;;;;5114362;28;20194;-72
2022/09/13 00:45:22;;;;;;;1.20;1.10;;;;;13.00;95648.00;;;;5114335;28;20222;-72
2022/09/13 00:47:55;;;;;;;0.60;0.60;;;;;13.00;95651.00;;;;5114324;28;20288;-73
2022/09/13 00:50:29;;;;;;;0.60;0.60;;;;;12.90;95647.00;;;;5114236;28;20221;-73
2022/09/13 00:53:01;;;;;;;0.50;0.50;;;;;12.70;95648.00;;;;5114133;28;20541;-73
2022/09/13 00:55:34;;;;;;;0.93;0.93;;;;;12.70;95644.00;;;;5114176;28;20645;-73
2022/09/13 00:58:04;;;;;;;0.60;0.60;;;;;12.60;95641.00;;;;5114045;28;20235;-73
2022/09/13 01:00:31;;;;;;;0.90;0.90;;;;;12.60;95648.00;;;;5114110;28;20201;-73
2022/09/13 01:03:03;;;;;;;0.60;0.60;;;;;12.60;95643.00;;;;5114065;28;20185;-74
2022/09/13 01:05:34;;;;;;;2.00;1.40;;;;;12.60;95650.00;;;;5096004;28;20521;-73
2022/09/13 01:08:01;;;;;;;0.50;0.50;;;;;12.50;95645.00;;;;5113962;28;20529;-73
2022/09/13 01:10:30;;;;;;;0.83;0.83;;;;;12.50;95649.00;;;;5113909;28;20190;-73
2022/09/13 01:13:04;;;;;;;1.33;1.33;;;;;12.50;95649.00;;;;5113705;28;20233;-73
2022/09/13 01:15:30;;;;;;;0.80;0.80;;;;;12.60;95648.00;;;;5113910;28;20214;-71
2022/09/13 01:17:57;;;;;;;0.67;0.67;;;;;12.70;95642.00;;;;5113699;28;20194;-74
2022/09/13 01:20:38;;;;;;;0.67;0.67;;;;;12.80;95641.00;;;;5113817;28;20194;-73
2022/09/13 01:23:33;;;;;;;0.80;0.80;;;;;12.70;95645.00;;;;5113803;28;20206;-74
2022/09/13 01:26:34;;;;;;;0.53;0.53;;;;;12.70;95643.00;;;;5113783;28;20190;-74
2022/09/13 01:29:45;;;;;;;1.03;1.03;;;;;12.70;95638.00;;;;5113807;28;20208;-74
2022/09/13 01:32:23;;;;;;;0.77;0.77;;;;;12.70;95634.00;;;;5113618;28;20226;-73
2022/09/13 01:35:03;;;;;;;0.63;0.63;;;;;12.50;95639.00;;;;5113658;28;20341;-73
2022/09/13 01:37:43;;;;;;;0.60;0.60;;;;;12.40;95637.00;;;;5116820;28;20228;-73
2022/09/13 01:40:22;;;;;;;0.90;0.90;;;;;12.30;95641.00;;;;5117168;28;20209;-70
2022/09/13 01:43:08;;;;;;;0.90;0.80;;;;;12.30;95644.00;;;;5117177;28;20198;-73
2022/09/13 01:45:44;;;;;;;1.00;1.00;;;;;12.40;95639.00;;;;5099556;28;20229;-72
2022/09/13 01:48:21;;;;;;;0.60;0.60;;;;;12.30;95641.00;;;;5117571;28;20189;-72
2022/09/13 01:50:55;;;;;;;0.87;0.87;;;;;12.50;95645.00;;;;5099166;28;20205;-72
2022/09/13 01:53:32;;;;;;;0.80;0.80;;;;;12.50;95638.00;;;;5117053;28;20189;-73
2022/09/13 01:56:05;;;;;;;0.70;0.70;;;;;12.60;95641.00;;;;5099058;28;20203;-69
2022/09/13 01:58:40;;;;;;;1.00;1.00;;;;;12.50;95632.00;;;;5116904;28;20232;-73
2022/09/13 02:01:14;;;;;;;0.67;0.67;;;;;12.60;95639.00;;;;5117084;28;20209;-73
2022/09/13 02:03:45;;;;;;;1.60;0.93;;;;;12.40;95649.00;;;;5098948;28;20217;-73
2022/09/13 02:06:17;;;;;;;1.43;0.90;;;;;12.40;95654.00;;;;5099029;28;20219;-71
2022/09/13 02:08:46;;;;;;;0.70;0.70;;;;;12.20;95655.00;;;;5117046;28;20232;-72
2022/09/13 02:11:16;;;;;;;0.80;0.80;;;;;12.20;95653.00;;;;5116652;28;20209;-72
2022/09/13 02:13:48;;;;;;;0.80;0.80;;;;;12.10;95653.00;;;;5116658;28;20190;-70
2022/09/13 02:16:20;;;;;;;1.20;1.20;;;;;12.10;95647.00;;;;5116820;28;20228;-73
2022/09/13 02:18:50;;;;;;;0.67;0.67;;;;;12.30;95644.00;;;;5098672;28;20590;-72
2022/09/13 02:21:25;;;;;;;0.57;0.57;;;;;12.20;95658.00;;;;5116865;28;20182;-73
2022/09/13 02:23:58;;;;;;;0.60;0.60;;;;;12.00;95655.00;;;;5116734;28;20217;-72
2022/09/13 02:26:30;;;;;;;0.60;0.60;;;;;12.00;95668.00;;;;5116490;28;20292;-73
2022/09/13 02:29:00;;;;;;;4.43;1.33;;;;;12.00;95663.00;;;;5098648;28;20289;-73
2022/09/13 02:31:32;;;;;;;7.53;1.63;;;;;12.00;95657.00;;;;5116326;28;20228;-73
2022/09/13 02:34:04;;;;;;;0.77;0.77;;;;;12.00;95656.00;;;;5116513;28;20202;-72
2022/09/13 02:36:35;;;;;;;0.73;0.73;;;;;11.90;95660.00;;;;5116436;28;20229;-70
2022/09/13 02:39:06;;;;;;;0.67;0.67;;;;;11.80;95649.00;;;;5116315;28;20197;-72
2022/09/13 02:41:38;;;;;;;0.83;0.83;;;;;11.80;95663.00;;;;5116522;28;20567;-72
2022/09/13 02:44:11;;;;;;;0.63;0.63;;;;;11.80;95662.00;;;;5116298;28;20198;-72
2022/09/13 02:46:51;;;;;;;0.90;0.90;;;;;11.80;95657.00;;;;5116153;28;20209;-72
2022/09/13 02:49:25;;;;;;;0.83;0.83;;;;;11.70;95648.00;;;;5098218;28;20207;-72
2022/09/13 02:52:00;;;;;;;0.70;0.70;;;;;11.80;95644.00;;;;5116055;28;20228;-73
2022/09/13 02:54:32;;;;;;;0.60;0.60;;;;;11.70;95640.00;;;;5116207;28;20698;-72
2022/09/13 02:57:05;;;;;;;0.80;0.80;;;;;11.80;95635.00;;;;5098237;28;20320;-72
2022/09/13 02:59:32;;;;;;;0.50;0.50;;;;;11.80;95638.00;;;;5115872;28;20652;-72
2022/09/13 03:02:02;;;;;;;0.87;0.87;;;;;11.70;95629.00;;;;5115926;28;20227;-73
2022/09/13 03:04:31;;;;;;;1.00;1.00;;;;;11.70;95632.00;;;;5115840;28;20225;-72
2022/09/13 03:06:58;;;;;;;0.63;0.63;;;;;11.70;95620.00;;;;5115982;28;20206;-72
2022/09/13 03:09:25;;;;;;;0.67;0.67;;;;;11.60;95616.00;;;;5115863;28;20206;-72
2022/09/13 03:12:10;;;;;;;0.73;0.73;;;;;11.60;95620.00;;;;5097858;28;20228;-71
2022/09/13 03:14:48;;;;;;;0.67;0.67;;;;;11.60;95611.00;;;;5115976;28;20217;-72
2022/09/13 03:17:30;;;;;;;0.70;0.70;;;;;11.50;95625.00;;;;5118025;28;20224;-72
2022/09/13 03:20:08;;;;;;;1.63;1.53;;;;;11.50;95623.00;;;;5117328;28;20652;-70
2022/09/13 03:22:55;;;;;;;0.97;0.97;;;;;11.50;95633.00;;;;5099551;28;20545;-72
2022/09/13 03:25:32;;;;;;;0.70;0.70;;;;;11.50;95636.00;;;;5117627;28;20206;-70
2022/09/13 03:28:09;;;;;;;0.70;0.70;;;;;11.50;95625.00;;;;5118390;28;20602;-72
2022/09/13 03:30:40;;;;;;;0.77;0.77;;;;;11.60;95621.00;;;;5098263;28;20225;-72
2022/09/13 03:33:15;;;;;;;0.83;0.83;;;;;11.60;95608.00;;;;5125613;28;20237;-73
2022/09/13 03:35:51;;;;;;;0.77;0.77;;;;;11.60;95605.00;;;;5125477;28;20193;-72
2022/09/13 03:38:24;;;;;;;1.00;1.00;;;;;11.60;95621.00;;;;5125142;28;20228;-73
2022/09/13 03:40:55;;;;;;;0.60;0.60;;;;;11.60;95607.00;;;;5124986;28;20191;-72
2022/09/13 03:43:26;;;;;;;0.73;0.73;;;;;11.50;95610.00;;;;5118772;28;20191;-69
2022/09/13 03:45:56;;;;;;;0.80;0.80;;;;;11.40;95614.00;;;;5115497;28;20198;-68
2022/09/13 03:48:23;;;;;;;0.60;0.60;;;;;11.40;95612.00;;;;5115194;28;20521;-70
2022/09/13 03:50:54;;;;;;;0.77;0.77;;;;;11.40;95613.00;;;;5115223;28;20264;-72
2022/09/13 03:53:24;;;;;;;0.70;0.70;;;;;11.50;95607.00;;;;5115041;28;20678;-74
2022/09/13 03:55:51;;;;;;;1.40;1.30;;;;;11.60;95605.00;;;;5097084;28;20537;-72
2022/09/13 03:58:19;;;;;;;0.77;0.77;;;;;11.60;95591.00;;;;5114713;28;20209;-72
2022/09/13 04:00:47;;;;;;;0.70;0.70;;;;;11.60;95583.00;;;;5114874;28;20267;-72
2022/09/13 04:03:15;;;;;;;0.80;0.80;;;;;11.60;95591.00;;;;5114979;28;20201;-73
2022/09/13 04:05:42;;;;;;;1.10;1.10;;;;;11.50;95586.00;;;;5114878;28;20194;-72
2022/09/13 04:08:09;;;;;;;0.97;0.97;;;;;11.20;95590.00;;;;5114892;28;20210;-70
2022/09/13 04:10:36;;;;;;;1.20;1.20;;;;;11.30;95597.00;;;;5114804;28;20194;-73
2022/09/13 04:13:04;;;;;;;0.90;0.90;;;;;11.30;95603.00;;;;5096701;28;20565;-71
2022/09/13 04:15:31;;;;;;;1.10;1.10;;;;;11.20;95611.00;;;;5114751;28;20209;-72
2022/09/13 04:17:58;;;;;;;0.93;0.93;;;;;11.30;95611.00;;;;5114602;28;20294;-71
2022/09/13 04:20:25;;;;;;;0.80;0.80;;;;;11.30;95620.00;;;;5114589;28;20651;-73
2022/09/13 04:22:52;;;;;;;0.70;0.70;;;;;11.70;95625.00;;;;5114734;28;20271;-72
2022/09/13 04:25:21;;;;;;;0.70;0.70;;;;;11.90;95625.00;;;;5114778;28;20210;-72
2022/09/13 04:27:48;;;;;;;0.63;0.63;;;;;12.00;95612.00;;;;5114789;28;20187;-73
2022/09/13 04:30:15;;;;;;;0.80;0.80;;;;;11.90;95610.00;;;;5114755;28;20186;-75
2022/09/13 04:32:43;;;;;;;0.50;0.50;;;;;12.00;95610.00;;;;5114454;28;20232;-73
2022/09/13 04:35:10;;;;;;;0.50;0.50;;;;;11.90;95617.00;;;;5114429;28;20275;-73
2022/09/13 04:37:38;;;;;;;0.70;0.70;;;;;12.00;95608.00;;;;5114604;28;20194;-73
2022/09/13 04:40:06;;;;;;;1.23;1.23;;;;;11.90;95613.00;;;;5114482;28;20228;-75
2022/09/13 04:42:34;;;;;;;0.67;0.67;;;;;11.60;95623.00;;;;5096650;28;20214;-74
2022/09/13 04:45:01;;;;;;;0.90;0.90;;;;;11.70;95606.00;;;;5114359;28;20247;-75
2022/09/13 04:47:28;;;;;;;0.60;0.60;;;;;11.60;95613.00;;;;5114284;28;20204;-75
2022/09/13 04:49:58;;;;;;;0.60;0.60;;;;;11.50;95631.00;;;;5114142;28;20277;-75
2022/09/13 04:52:25;;;;;;;0.80;0.80;;;;;11.70;95620.00;;;;5114110;28;20222;-75
2022/09/13 04:54:51;;;;;;;0.80;0.80;;;;;11.90;95626.00;;;;5114097;28;20672;-75
2022/09/13 04:57:18;;;;;;;0.70;0.70;;;;;11.90;95624.00;;;;5114001;28;20287;-74
2022/09/13 04:59:48;;;;;;;0.80;0.80;;;;;12.10;95622.00;;;;5114086;28;20198;-74
2022/09/13 05:02:15;;;;;;;1.10;1.10;;;;;12.10;95610.00;;;;5113979;28;20675;-75
2022/09/13 05:04:41;;;;;;;0.70;0.70;;;;;11.90;95618.00;;;;5113916;28;20656;-73
2022/09/13 05:07:08;;;;;;;0.80;0.80;;;;;11.80;95629.00;;;;5095881;28;20682;-72
2022/09/13 05:09:35;;;;;;;5.87;1.83;;;;;11.70;95634.00;;;;5113987;28;20587;-75
2022/09/13 05:12:02;;;;;;;2.93;1.63;;;;;11.60;95634.00;;;;5112652;28;20221;-75
2022/09/13 05:14:29;;;;;;;1.40;1.30;;;;;11.40;95626.00;;;;5113695;28;20221;-75
2022/09/13 05:16:57;;;;;;;0.87;0.87;;;;;11.40;95623.00;;;;5113955;28;20267;-75
2022/09/13 05:19:24;;;;;;;0.60;0.60;;;;;11.40;95633.00;;;;5115252;28;20222;-75
2022/09/13 05:21:53;;;;;;;1.40;1.30;;;;;11.40;95636.00;;;;5114030;28;20194;-74
2022/09/13 05:24:19;;;;;;;0.90;0.90;;;;;11.50;95641.00;;;;5113636;28;20229;-75
2022/09/13 05:26:46;;;;;;;1.10;1.10;;;;;11.50;95649.00;;;;5113794;28;20198;-75
2022/09/13 05:29:13;;;;;;;0.93;0.93;;;;;11.50;95641.00;;;;5113933;28;20202;-74
2022/09/13 05:31:42;;;;;;;3.00;1.53;;;;;11.60;95652.00;;;;5113998;28;20275;-74
2022/09/13 05:34:12;;;;;;;1.10;1.10;;;;;11.60;95614.00;;;;5095607;28;20194;-75
2022/09/13 05:36:40;;;;;;;0.87;0.87;;;;;11.70;95656.00;;;;5113491;28;20221;-75
2022/09/13 05:39:11;;;;;;;0.70;0.70;;;;;11.70;95649.00;;;;5113469;28;20584;-70
2022/09/13 05:41:37;;;;;;;0.87;0.87;;;;;11.90;95652.00;;;;5113650;28;20298;-75
2022/09/13 05:44:04;;;;;;;1.27;1.17;;;;;12.00;95647.00;;;;5113454;28;20194;-73
2022/09/13 05:46:31;;;;;;;0.70;0.70;;;;;11.90;95636.00;;;;5113500;28;20241;-71
2022/09/13 05:48:58;;;;;;;1.13;1.13;;;;;12.00;95644.00;;;;5113548;28;20560;-74
2022/09/13 05:51:28;;;;;;;1.00;1.00;;;;;12.00;95649.00;;;;5113412;28;20660;-75
2022/09/13 05:53:56;;;;;;;0.60;0.60;;;;;12.00;95657.00;;;;5113345;28;20194;-75
2022/09/13 05:56:24;;;;;;;0.90;0.90;;;;;12.00;95649.00;;;;5113289;28;20679;-72
2022/09/13 05:58:52;;;;;;;0.80;0.80;;;;;12.00;95656.00;;;;5113317;28;20190;-75
2022/09/13 06:01:22;;;;;;;0.80;0.80;;;;;12.00;95645.00;;;;5113265;28;20617;-74
2022/09/13 06:03:50;;;;;;;0.50;0.50;;;;;12.10;95644.00;;;;5113125;28;20218;-75
2022/09/13 06:06:18;;;;;;;0.67;0.67;;;;;12.10;95651.00;;;;5113166;28;20190;-71
2022/09/13 06:08:45;;;;;;;0.70;0.70;;;;;12.00;95659.00;;;;5113037;28;20271;-72
2022/09/13 06:11:14;;;;;;;0.80;0.80;;;;;12.10;95666.00;;;;5094982;28;20198;-74
2022/09/13 06:13:42;;;;;;;0.60;0.60;;;;;12.10;95661.00;;;;5113154;28;20213;-75
2022/09/13 06:16:10;;;;;;;1.17;1.17;;;;;12.10;95664.00;;;;5113060;28;20705;-71
2022/09/13 06:18:40;;;;;;;0.70;0.70;;;;;12.10;95654.00;;;;5113045;28;20292;-73
2022/09/13 06:21:11;;;;;;;1.33;1.33;;;;;12.20;95654.00;;;;5113164;28;20198;-72
2022/09/13 06:23:37;;;;;;;0.87;0.87;;;;;12.30;95659.00;;;;5116249;28;20214;-75
2022/09/13 06:26:07;;;;;;;1.00;1.00;;;;;12.20;95656.00;;;;5116565;28;20202;-75
2022/09/13 06:28:34;;;;;;;0.80;0.80;;;;;12.30;95648.00;;;;5116414;28;20226;-74
2022/09/13 06:31:03;;;;;;;0.70;0.70;;;;;12.40;95644.00;;;;5116518;28;20295;-75
2022/09/13 06:33:29;;;;;;;0.70;0.70;;;;;12.50;95640.00;;;;5116479;28;20226;-75
2022/09/13 06:36:01;;;;;;;0.80;0.80;;;;;12.50;95646.00;;;;5116436;28;20229;-76
2022/09/13 06:38:28;;;;;;;0.70;0.70;;;;;12.60;95648.00;;;;5116332;28;20657;-72
2022/09/13 06:41:03;;;;;;;0.97;0.97;;;;;12.50;95654.00;;;;5116287;28;20202;-79
2022/09/13 06:43:31;;;;;;;4.27;1.53;;;;;12.60;95649.00;;;;5116250;28;20256;-80
2022/09/13 06:46:02;;;;;;;0.60;0.60;;;;;12.60;95639.00;;;;5116284;28;20688;-79
2022/09/13 06:48:31;;;;;;;0.60;0.60;;;;;12.80;95638.00;;;;5116143;28;20237;-78
2022/09/13 06:51:00;;;;;;;0.80;0.80;;;;;13.00;95638.00;;;;5116080;28;20271;-76
2022/09/13 06:53:27;;;;;;;0.60;0.60;;;;;13.10;95639.00;;;;5115786;28;20672;-76
2022/09/13 06:56:01;;;;;;;0.80;0.80;;;;;13.30;95645.00;;;;5116081;28;20581;-77
2022/09/13 07:01:47;;;;;;;0.50;0.50;;;;;13.60;95625.00;;;;5109267;28;20593;-66
2022/09/13 07:04:17;;;;;;;1.33;1.33;;;;;13.70;95634.00;;;;5115693;28;20543;-67
2022/09/13 07:06:46;;;;;;;0.70;0.70;;;;;13.90;95641.00;;;;5115739;28;20204;-64
2022/09/13 07:09:16;;;;;;;0.77;0.77;;;;;14.10;95641.00;;;;5115688;28;20190;-66
2022/09/13 07:11:43;;;;;;;0.70;0.70;;;;;14.10;95646.00;;;;5115620;28;20244;-66
2022/09/13 07:14:13;;;;;;;0.93;0.93;;;;;14.30;95646.00;;;;5115509;28;20650;-80
2022/09/13 07:16:40;;;;;;;0.70;0.70;;;;;14.20;95637.00;;;;5115646;28;20214;-80
2022/09/13 07:19:11;;;;;;;0.70;0.70;;;;;14.20;95637.00;;;;5115658;28;20194;-77
2022/09/13 07:21:41;;;;;;;0.53;0.53;;;;;14.40;95641.00;;;;5115777;28;20218;-78
2022/09/13 07:24:10;;;;;;;1.03;1.03;;;;;14.60;95628.00;;;;5115565;28;20660;-74
2022/09/13 07:26:37;;;;;;;0.90;0.90;;;;;14.70;95617.00;;;;5115587;28;20191;-76
2022/09/13 07:29:06;;;;;;;0.63;0.63;;;;;15.00;95620.00;;;;5115703;28;20194;-80
2022/09/13 07:31:35;;;;;;;0.87;0.87;;;;;15.00;95611.00;;;;5115426;28;20221;-80
2022/09/13 07:34:06;;;;;;;0.67;0.67;;;;;15.20;95602.00;;;;5114434;28;20214;-77
2022/09/13 07:36:35;;;;;;;0.60;0.60;;;;;15.40;95599.00;;;;5115489;28;20198;-79
2022/09/13 07:39:03;;;;;;;0.40;0.40;;;;;15.60;95612.00;;;;5115520;28;20239;-79
2022/09/13 07:41:31;;;;;;;0.83;0.83;;;;;15.90;95603.00;;;;5115324;28;20201;-79
2022/09/13 07:44:00;;;;;;;0.60;0.60;;;;;16.10;95609.00;;;;5115311;28;20201;-74
2022/09/13 07:46:31;;;;;;;0.77;0.77;;;;;16.60;95616.00;;;;5115295;28;20190;-78
2022/09/13 07:49:00;;;;;;;1.00;0.70;;;;;16.80;95611.00;;;;5115212;28;20216;-77
2022/09/13 07:51:28;;;;;;;0.80;0.80;;;;;16.80;95623.00;;;;5115072;28;20221;-76
2022/09/13 07:53:57;;;;;;;0.50;0.50;;;;;16.90;95616.00;;;;5115192;28;20198;-77
2022/09/13 07:56:25;;;;;;;0.60;0.60;;;;;17.10;95613.00;;;;5114994;28;20551;-77
2022/09/13 07:58:54;;;;;;;1.07;1.07;;;;;17.30;95610.00;;;;5117273;28;20194;-78
2022/09/13 08:01:24;;;;;;;0.77;0.77;;;;;17.40;95602.00;;;;5115074;28;20273;-79
2022/09/13 08:03:52;;;;;;;0.57;0.57;;;;;17.40;95594.00;;;;5115062;28;20624;-78
2022/09/13 08:06:20;;;;;;;0.50;0.50;;;;;17.60;95595.00;;;;5115039;28;20362;-78
2022/09/13 08:08:46;;;;;;;0.70;0.70;;;;;17.70;95605.00;;;;5114895;28;20278;-78
2022/09/13 08:11:17;;;;;;;0.83;0.83;;;;;17.70;95608.00;;;;5114934;28;20268;-79
2022/09/13 08:13:44;;;;;;;0.80;0.80;;;;;17.90;95600.00;;;;5097119;28;20520;-78
2022/09/13 08:16:11;;;;;;;0.60;0.60;;;;;17.80;95606.00;;;;5114717;28;20202;-79
2022/09/13 08:18:42;;;;;;;0.80;0.80;;;;;17.90;95612.00;;;;5114742;28;20199;-78
2022/09/13 08:21:09;;;;;;;0.90;0.77;;;;;18.00;95614.00;;;;5114737;28;20194;-76
2022/09/13 08:23:36;;;;;;;0.40;0.40;;;;;18.10;95619.00;;;;5114678;28;20202;-79
2022/09/13 08:26:05;;;;;;;0.50;0.50;;;;;18.40;95633.00;;;;5114622;28;20578;-71
2022/09/13 08:28:34;;;;;;;0.73;0.73;;;;;18.70;95621.00;;;;5114947;28;20190;-77
2022/09/13 08:31:05;;;;;;;0.50;0.50;;;;;18.60;95623.00;;;;5114501;28;20682;-72
2022/09/13 08:33:32;;;;;;;0.70;0.70;;;;;18.70;95625.00;;;;5096485;28;20552;-78
2022/09/13 08:35:59;;;;;;;1.13;1.07;;;;;18.90;95611.00;;;;5114807;28;20633;-78
2022/09/13 08:38:26;;;;;;;0.50;0.50;;;;;19.00;95606.00;;;;5121380;28;20194;-77
2022/09/13 08:40:56;;;;;;;1.83;1.73;;;;;19.20;95602.00;;;;5120113;28;20200;-77
2022/09/13 08:43:43;;;;;;;1.00;0.93;;;;;19.40;95588.00;;;;5114399;28;20225;-78
2022/09/13 08:46:20;;;;;;;0.70;0.70;;;;;19.50;95590.00;;;;5096596;28;20194;-78
2022/09/13 08:48:49;;;;;;;0.70;0.70;;;;;19.70;95587.00;;;;5114721;28;20230;-75
2022/09/13 08:51:31;;;;;;;0.57;0.57;;;;;19.80;95581.00;;;;5115419;28;20406;-79
2022/09/13 08:53:59;;;;;;;0.57;0.57;;;;;20.00;95593.00;;;;5114923;28;20357;-79
2022/09/13 08:56:34;;;;;;;0.70;0.70;;;;;20.10;95589.00;;;;5114606;28;20625;-78
2022/09/13 08:59:16;;;;;;;0.50;0.50;;;;;20.50;95597.00;;;;5114359;28;20212;-79
2022/09/13 09:01:53;;;;;;;0.50;0.50;;;;;20.70;95591.00;;;;5114012;28;20201;-80
2022/09/13 09:04:39;;;;;;;0.63;0.63;;;;;20.90;95590.00;;;;5114105;28;20201;-79
2022/09/13 09:07:11;;;;;;;0.60;0.60;;;;;21.00;95589.00;;;;5114417;28;20210;-79
2022/09/13 09:09:45;;;;;;;0.88;0.88;;;;;21.10;95590.00;;;;5114896;28;20197;-81
2022/09/13 09:12:20;;;;;;;1.40;1.02;;;;;21.20;95593.00;;;;5114406;28;20312;-77
2022/09/13 09:14:53;;;;;;;0.60;0.60;;;;;21.20;95586.00;;;;5097196;28;20208;-78
2022/09/13 09:17:25;;;;;;;0.53;0.53;;;;;21.50;95589.00;;;;5115627;28;20316;-79
2022/09/13 09:19:57;;;;;;;0.50;0.50;;;;;21.70;95595.00;;;;5114296;28;20178;-79
2022/09/13 09:22:34;;;;;;;0.47;0.47;;;;;21.90;95584.00;;;;5114701;28;20277;-79
2022/09/13 09:25:02;;;;;;;0.77;0.77;;;;;22.00;95587.00;;;;5114625;28;20217;-79
2022/09/13 09:27:30;;;;;;;0.60;0.60;;;;;22.20;95595.00;;;;5114295;28;20193;-79
2022/09/13 09:29:57;;;;;;;0.68;0.68;;;;;22.30;95587.00;;;;5114578;28;20220;-75
2022/09/13 09:32:49;;;;;;;0.68;0.68;;;;;22.50;95602.00;;;;5114205;28;20671;-79
2022/09/13 09:35:27;;;;;;;0.40;0.40;;;;;22.60;95610.00;;;;5114073;28;20229;-78
2022/09/13 09:38:10;;;;;;;0.88;0.88;;;;;22.70;95619.00;;;;5114411;28;20208;-80
2022/09/13 09:40:37;;;;;;;0.40;0.40;;;;;22.70;95616.00;;;;5114711;28;20664;-79
2022/09/13 09:43:17;;;;;;;0.45;0.45;;;;;22.90;95624.00;;;;5114476;28;20210;-78
2022/09/13 09:45:45;;;;;;;0.47;0.47;;;;;22.80;95625.00;;;;5114141;28;20210;-77
2022/09/13 09:48:17;;;;;;;0.50;0.50;;;;;23.00;95625.00;;;;5095943;28;20322;-78
2022/09/13 09:50:49;;;;;;;0.50;0.50;;;;;23.10;95633.00;;;;5114421;28;20196;-78
2022/09/13 09:53:25;;;;;;;0.40;0.40;;;;;23.20;95635.00;;;;5096618;28;20238;-80
2022/09/13 09:55:59;;;;;;;0.30;0.30;;;;;23.30;95629.00;;;;5114229;28;20185;-81
2022/09/13 09:58:40;;;;;;;0.50;0.50;;;;;23.40;95631.00;;;;5116827;28;20214;-76
2022/09/13 10:01:18;;;;;;;0.60;0.60;;;;;23.50;95622.00;;;;5117858;28;20292;-79
2022/09/13 10:03:51;;;;;;;0.55;0.55;;;;;23.40;95618.00;;;;5102743;28;20225;-78
2022/09/13 10:06:24;;;;;;;0.50;0.50;;;;;23.70;95609.00;;;;5117689;28;20204;-78
2022/09/13 10:08:59;;;;;;;0.75;0.63;;;;;23.90;95606.00;;;;5117497;28;20214;-78
2022/09/13 10:11:42;;;;;;;0.50;0.50;;;;;23.90;95604.00;;;;5117407;28;20197;-79
2022/09/13 10:14:42;;;;;;;0.60;0.60;;;;;24.00;95602.00;;;;5099537;28;20201;-79
2022/09/13 10:17:20;;;;;;;0.40;0.40;;;;;24.30;95605.00;;;;5116325;28;20633;-73
2022/09/13 10:19:56;;;;;;;0.50;0.50;;;;;24.50;95609.00;;;;5117442;28;20633;-80
2022/09/13 10:22:24;;;;;;;2.30;1.05;;;;;24.80;95615.00;;;;5118044;28;20217;-79
2022/09/13 10:24:51;;;;;;;0.50;0.50;;;;;25.00;95619.00;;;;5116734;28;20202;-79
2022/09/13 10:27:24;;;;;;;0.40;0.40;;;;;25.10;95621.00;;;;5116540;28;20222;-79
2022/09/13 10:29:55;;;;;;;0.50;0.50;;;;;25.40;95625.00;;;;5116625;28;20633;-77
2022/09/13 10:32:23;;;;;;;0.43;0.43;;;;;25.60;95620.00;;;;5098389;28;20233;-78
2022/09/13 10:34:51;;;;;;;0.40;0.40;;;;;25.80;95609.00;;;;5116491;28;20250;-80
2022/09/13 10:37:23;;;;;;;0.40;0.40;;;;;26.10;95597.00;;;;5098494;28;20204;-79
2022/09/13 10:39:56;;;;;;;0.57;0.57;;;;;26.40;95600.00;;;;5116491;28;20198;-79
2022/09/13 10:42:25;;;;;;;0.40;0.40;;;;;26.60;95596.00;;;;5116410;28;20186;-79
2022/09/13 10:44:54;;;;;;;0.40;0.40;;;;;26.40;95588.00;;;;5116301;28;20218;-76
2022/09/13 10:47:26;;;;;;;0.90;0.77;;;;;26.30;95593.00;;;;5116601;28;20526;-80
2022/09/13 10:49:56;;;;;;;0.55;0.55;;;;;26.20;95598.00;;;;5116776;28;20319;-79
2022/09/13 10:52:32;;;;;;;0.43;0.43;;;;;26.00;95592.00;;;;5116250;28;20732;-79
2022/09/13 10:55:28;;;;;;;0.50;0.50;;;;;26.10;95605.00;;;;5116147;28;20221;-72
2022/09/13 10:58:12;;;;;;;0.40;0.40;;;;;26.20;95599.00;;;;5098234;28;20669;-74
2022/09/13 11:01:10;;;;;;;0.40;0.40;;;;;26.00;95603.00;;;;5116226;28;20247;-71
2022/09/13 11:03:58;;;;;;;0.60;0.60;;;;;26.00;95600.00;;;;5116527;28;20314;-76
2022/09/13 11:06:37;;;;;;;0.60;0.60;;;;;26.00;95598.00;;;;5098795;28;20255;-79
2022/09/13 11:09:13;;;;;;;0.50;0.50;;;;;26.30;95591.00;;;;5114800;28;20504;-64
2022/09/13 11:11:51;;;;;;;0.50;0.50;;;;;26.50;95599.00;;;;5115785;28;20394;-65
2022/09/13 11:14:43;;;;;;;0.43;0.43;;;;;26.70;95597.00;;;;5115818;28;20197;-65
2022/09/13 11:17:22;;;;;;;0.50;0.50;;;;;27.00;95592.00;;;;5115796;28;20343;-68
2022/09/13 11:20:05;;;;;;;0.43;0.43;;;;;27.00;95605.00;;;;5115634;28;20233;-65
2022/09/13 11:22:51;;;;;;;0.38;0.38;;;;;27.30;95609.00;;;;5115637;28;20201;-65
2022/09/13 11:25:35;;;;;;;0.38;0.38;;;;;27.10;95598.00;;;;5115730;28;20291;-75
2022/09/13 11:28:13;;;;;;;0.57;0.57;;;;;27.50;95602.00;;;;5115885;28;20246;-81
2022/09/13 11:30:54;;;;;;;1.10;1.00;;;;;27.20;95607.00;;;;5115638;28;20308;-80
2022/09/13 11:33:34;;;;;;;0.40;0.40;;;;;27.30;95601.00;;;;5116300;28;20263;-77
2022/09/13 11:36:25;;;;;;;0.40;0.40;;;;;27.10;95605.00;;;;5116160;28;20309;-80
2022/09/13 11:39:02;;;;;;;0.80;0.80;;;;;27.40;95602.00;;;;5125815;28;20226;-81
2022/09/13 11:41:42;;;;;;;0.50;0.50;;;;;27.60;95579.00;;;;5122537;28;20218;-83
2022/09/13 11:44:31;;;;;;;0.50;0.50;;;;;27.70;95598.00;;;;5120332;28;20197;-82
2022/09/13 11:47:05;;;;;;;0.50;0.50;;;;;27.60;95608.00;;;;5117760;28;20221;-79
2022/09/13 11:49:45;;;;;;;0.60;0.60;;;;;27.60;95610.00;;;;5126177;28;20272;-82
2022/09/13 11:52:27;;;;;;;0.75;0.68;;;;;27.50;95603.00;;;;5119977;28;20217;-82
2022/09/13 11:55:05;;;;;;;0.63;0.63;;;;;27.50;95624.00;;;;5124184;28;20624;-82
2022/09/13 11:57:39;;;;;;;0.43;0.43;;;;;27.60;95625.00;;;;5122119;28;20277;-82
2022/09/13 12:00:14;;;;;;;0.70;0.70;;;;;27.70;95627.00;;;;5119716;28;20194;-84
2022/09/13 12:02:46;;;;;;;0.93;0.93;;;;;27.40;95613.00;;;;5101542;28;20220;-79
2022/09/13 12:05:18;;;;;;;0.40;0.40;;;;;27.60;95606.00;;;;5122404;28;20226;-82
2022/09/13 12:07:51;;;;;;;0.70;0.70;;;;;28.00;95589.00;;;;5121789;28;20226;-81
2022/09/13 12:10:24;;;;;;;0.57;0.57;;;;;28.30;95588.00;;;;5121385;28;20214;-80
2022/09/13 12:12:52;;;;;;;0.47;0.47;;;;;28.70;95589.00;;;;5121417;28;20213;-80
2022/09/13 12:15:25;;;;;;;0.50;0.50;;;;;29.10;95587.00;;;;5122081;28;20575;-81
2022/09/13 12:17:57;;;;;;;0.50;0.50;;;;;29.60;95582.00;;;;5122711;28;20198;-81
2022/09/13 12:20:32;;;;;;;1.00;0.75;;;;;29.70;95578.00;;;;5120544;28;20194;-80
2022/09/13 12:23:04;;;;;;;0.60;0.60;;;;;29.60;95578.00;;;;5121140;28;20239;-81
2022/09/13 12:25:38;;;;;;;0.70;0.70;;;;;30.00;95569.00;;;;5120026;28;20524;-82
2022/09/13 12:28:13;;;;;;;0.60;0.60;;;;;29.50;95570.00;;;;5124130;28;20224;-80
2022/09/13 12:30:46;;;;;;;0.40;0.40;;;;;30.00;95559.00;;;;5125142;28;20652;-79
2022/09/13 12:33:15;;;;;;;0.50;0.50;;;;;30.20;95563.00;;;;5103697;28;20230;-79
2022/09/13 12:35:53;;;;;;;0.50;0.50;;;;;30.40;95566.00;;;;5118888;28;20277;-76
2022/09/13 12:38:48;;;;;;;0.45;0.45;;;;;30.00;95566.00;;;;5116960;28;20201;-81
2022/09/13 12:41:31;;;;;;;0.80;0.80;;;;;29.40;95560.00;;;;5107063;28;20270;-83
2022/09/13 12:44:20;;;;;;;0.60;0.60;;;;;28.70;95552.00;;;;5116406;28;20193;-84
2022/09/13 12:47:28;;;;;;;0.40;0.40;;;;;29.10;95547.00;;;;5116305;28;20221;-84